sensor_id;sensor_type;location;lat;lon;timestamp;P1;durP1;ratioP1;P2;durP2;ratioP2
16314;SDS011;8266;52.150;4.768;2023-02-11T00:02:02;9.52;;;3.20;;
16314;SDS011;8266;52.150;4.768;2023-02-11T00:04:30;9.57;;;3.25;;
16314;SDS011;8266;52.150;4.768;2023-02-11T00:06:57;11.60;;;3.17;;
16314;SDS011;8266;52.150;4.768;2023-02-11T00:09:26;11.15;;;2.85;;
16314;SDS011;8266;52.150;4.768;2023-02-11T00:11:54;8.43;;;2.92;;
16314;SDS011;8266;52.150;4.768;2023-02-11T00:14:21;10.05;;;3.67;;
16314;SDS011;8266;52.150;4.768;2023-02-11T00:16:48;10.35;;;3.17;;
16314;SDS011;8266;52.150;4.768;2023-02-11T00:19:15;10.75;;;3.58;;
16314;SDS011;8266;52.150;4.768;2023-02-11T00:21:42;13.25;;;3.50;;
16314;SDS011;8266;52.150;4.768;2023-02-11T00:24:09;14.77;;;2.88;;
16314;SDS011;8266;52.150;4.768;2023-02-11T00:26:36;10.73;;;3.63;;
16314;SDS011;8266;52.150;4.768;2023-02-11T00:29:04;11.90;;;3.17;;
16314;SDS011;8266;52.150;4.768;2023-02-11T00:31:32;9.05;;;3.08;;
16314;SDS011;8266;52.150;4.768;2023-02-11T00:33:59;10.38;;;4.22;;
16314;SDS011;8266;52.150;4.768;2023-02-11T00:36:26;15.82;;;3.58;;
16314;SDS011;8266;52.150;4.768;2023-02-11T00:38:54;12.40;;;3.67;;
16314;SDS011;8266;52.150;4.768;2023-02-11T00:41:22;10.07;;;2.92;;
16314;SDS011;8266;52.150;4.768;2023-02-11T00:43:50;8.50;;;3.10;;
16314;SDS011;8266;52.150;4.768;2023-02-11T00:46:18;8.55;;;3.08;;
16314;SDS011;8266;52.150;4.768;2023-02-11T00:48:46;9.40;;;2.97;;
16314;SDS011;8266;52.150;4.768;2023-02-11T00:51:14;8.45;;;3.30;;
16314;SDS011;8266;52.150;4.768;2023-02-11T00:53:41;8.45;;;3.22;;
16314;SDS011;8266;52.150;4.768;2023-02-11T00:56:09;11.60;;;3.75;;
16314;SDS011;8266;52.150;4.768;2023-02-11T00:58:36;11.48;;;3.60;;
16314;SDS011;8266;52.150;4.768;2023-02-11T01:01:03;8.88;;;3.22;;
16314;SDS011;8266;52.150;4.768;2023-02-11T01:03:33;11.65;;;3.58;;
16314;SDS011;8266;52.150;4.768;2023-02-11T01:06:00;11.15;;;3.60;;
16314;SDS011;8266;52.150;4.768;2023-02-11T01:08:27;11.38;;;3.90;;
16314;SDS011;8266;52.150;4.768;2023-02-11T01:10:55;9.18;;;3.47;;
16314;SDS011;8266;52.150;4.768;2023-02-11T01:13:23;10.45;;;3.50;;
16314;SDS011;8266;52.150;4.768;2023-02-11T01:15:51;10.88;;;3.75;;
16314;SDS011;8266;52.150;4.768;2023-02-11T01:18:18;10.88;;;3.50;;
16314;SDS011;8266;52.150;4.768;2023-02-11T01:20:47;10.73;;;3.92;;
16314;SDS011;8266;52.150;4.768;2023-02-11T01:23:14;16.02;;;4.30;;
16314;SDS011;8266;52.150;4.768;2023-02-11T01:25:41;16.63;;;4.05;;
16314;SDS011;8266;52.150;4.768;2023-02-11T01:28:11;12.88;;;3.80;;
16314;SDS011;8266;52.150;4.768;2023-02-11T01:30:42;7.70;;;3.42;;
16314;SDS011;8266;52.150;4.768;2023-02-11T01:33:09;8.15;;;3.72;;
16314;SDS011;8266;52.150;4.768;2023-02-11T01:35:36;13.90;;;4.57;;
16314;SDS011;8266;52.150;4.768;2023-02-11T01:38:05;7.95;;;3.80;;
16314;SDS011;8266;52.150;4.768;2023-02-11T01:40:32;10.98;;;3.60;;
16314;SDS011;8266;52.150;4.768;2023-02-11T01:42:59;7.50;;;3.50;;
16314;SDS011;8266;52.150;4.768;2023-02-11T01:45:51;9.05;;;3.83;;
16314;SDS011;8266;52.150;4.768;2023-02-11T01:48:27;9.25;;;3.92;;
16314;SDS011;8266;52.150;4.768;2023-02-11T01:50:59;10.50;;;4.65;;
16314;SDS011;8266;52.150;4.768;2023-02-11T01:53:29;12.73;;;4.85;;
16314;SDS011;8266;52.150;4.768;2023-02-11T01:56:16;11.23;;;4.13;;
16314;SDS011;8266;52.150;4.768;2023-02-11T01:59:04;10.25;;;4.15;;
16314;SDS011;8266;52.150;4.768;2023-02-11T02:01:35;11.55;;;4.68;;
16314;SDS011;8266;52.150;4.768;2023-02-11T02:04:04;10.90;;;4.70;;
16314;SDS011;8266;52.150;4.768;2023-02-11T02:06:33;7.95;;;3.95;;
16314;SDS011;8266;52.150;4.768;2023-02-11T02:09:06;12.35;;;5.00;;
16314;SDS011;8266;52.150;4.768;2023-02-11T02:11:40;10.50;;;4.25;;
16314;SDS011;8266;52.150;4.768;2023-02-11T02:14:08;9.65;;;4.35;;
16314;SDS011;8266;52.150;4.768;2023-02-11T02:16:35;9.77;;;4.80;;
16314;SDS011;8266;52.150;4.768;2023-02-11T02:19:20;12.38;;;4.68;;
16314;SDS011;8266;52.150;4.768;2023-02-11T02:22:17;11.20;;;4.78;;
16314;SDS011;8266;52.150;4.768;2023-02-11T02:25:06;13.80;;;5.57;;
16314;SDS011;8266;52.150;4.768;2023-02-11T02:27:46;11.43;;;4.78;;
16314;SDS011;8266;52.150;4.768;2023-02-11T02:30:29;11.50;;;4.57;;
16314;SDS011;8266;52.150;4.768;2023-02-11T02:33:30;13.27;;;5.22;;
16314;SDS011;8266;52.150;4.768;2023-02-11T02:36:08;10.68;;;4.38;;
16314;SDS011;8266;52.150;4.768;2023-02-11T02:38:42;12.82;;;4.55;;
16314;SDS011;8266;52.150;4.768;2023-02-11T02:41:14;9.75;;;4.40;;
16314;SDS011;8266;52.150;4.768;2023-02-11T02:43:45;10.75;;;5.03;;
16314;SDS011;8266;52.150;4.768;2023-02-11T02:46:15;11.32;;;4.40;;
16314;SDS011;8266;52.150;4.768;2023-02-11T02:48:46;15.57;;;4.85;;
16314;SDS011;8266;52.150;4.768;2023-02-11T02:51:19;11.65;;;3.90;;
16314;SDS011;8266;52.150;4.768;2023-02-11T02:53:58;10.75;;;3.70;;
16314;SDS011;8266;52.150;4.768;2023-02-11T02:56:35;10.77;;;3.92;;
16314;SDS011;8266;52.150;4.768;2023-02-11T02:59:12;15.25;;;4.35;;
16314;SDS011;8266;52.150;4.768;2023-02-11T03:01:53;14.60;;;4.15;;
16314;SDS011;8266;52.150;4.768;2023-02-11T03:04:29;13.27;;;4.38;;
16314;SDS011;8266;52.150;4.768;2023-02-11T03:07:04;9.23;;;3.47;;
16314;SDS011;8266;52.150;4.768;2023-02-11T03:09:35;8.85;;;3.80;;
16314;SDS011;8266;52.150;4.768;2023-02-11T03:12:05;11.13;;;4.07;;
16314;SDS011;8266;52.150;4.768;2023-02-11T03:14:34;16.52;;;3.97;;
16314;SDS011;8266;52.150;4.768;2023-02-11T03:17:02;12.75;;;3.92;;
16314;SDS011;8266;52.150;4.768;2023-02-11T03:19:33;9.82;;;4.05;;
16314;SDS011;8266;52.150;4.768;2023-02-11T03:22:05;14.43;;;4.45;;
16314;SDS011;8266;52.150;4.768;2023-02-11T03:24:36;9.68;;;4.22;;
16314;SDS011;8266;52.150;4.768;2023-02-11T03:27:06;12.10;;;4.47;;
16314;SDS011;8266;52.150;4.768;2023-02-11T03:29:38;12.00;;;4.00;;
16314;SDS011;8266;52.150;4.768;2023-02-11T03:32:10;12.02;;;4.15;;
16314;SDS011;8266;52.150;4.768;2023-02-11T03:34:44;11.95;;;4.40;;
16314;SDS011;8266;52.150;4.768;2023-02-11T03:37:18;9.65;;;4.10;;
16314;SDS011;8266;52.150;4.768;2023-02-11T03:39:50;10.27;;;4.20;;
16314;SDS011;8266;52.150;4.768;2023-02-11T03:42:19;10.32;;;3.85;;
16314;SDS011;8266;52.150;4.768;2023-02-11T03:44:50;13.75;;;4.40;;
16314;SDS011;8266;52.150;4.768;2023-02-11T03:47:21;13.55;;;4.57;;
16314;SDS011;8266;52.150;4.768;2023-02-11T03:49:52;12.40;;;4.53;;
16314;SDS011;8266;52.150;4.768;2023-02-11T03:52:22;9.32;;;3.80;;
16314;SDS011;8266;52.150;4.768;2023-02-11T03:54:52;17.08;;;4.63;;
16314;SDS011;8266;52.150;4.768;2023-02-11T03:57:21;15.80;;;5.00;;
16314;SDS011;8266;52.150;4.768;2023-02-11T03:59:49;11.07;;;4.30;;
16314;SDS011;8266;52.150;4.768;2023-02-11T04:02:17;12.23;;;4.85;;
16314;SDS011;8266;52.150;4.768;2023-02-11T04:04:44;10.43;;;4.68;;
16314;SDS011;8266;52.150;4.768;2023-02-11T04:07:14;14.02;;;5.22;;
16314;SDS011;8266;52.150;4.768;2023-02-11T04:09:41;10.35;;;4.25;;
16314;SDS011;8266;52.150;4.768;2023-02-11T04:12:08;9.70;;;4.70;;
16314;SDS011;8266;52.150;4.768;2023-02-11T04:14:35;12.50;;;4.88;;
16314;SDS011;8266;52.150;4.768;2023-02-11T04:17:02;14.52;;;5.25;;
16314;SDS011;8266;52.150;4.768;2023-02-11T04:19:29;14.70;;;5.53;;
16314;SDS011;8266;52.150;4.768;2023-02-11T04:21:56;10.77;;;4.63;;
16314;SDS011;8266;52.150;4.768;2023-02-11T04:24:25;11.38;;;5.10;;
16314;SDS011;8266;52.150;4.768;2023-02-11T04:26:52;14.23;;;4.90;;
16314;SDS011;8266;52.150;4.768;2023-02-11T04:29:19;11.90;;;5.53;;
16314;SDS011;8266;52.150;4.768;2023-02-11T04:31:46;14.45;;;5.78;;
16314;SDS011;8266;52.150;4.768;2023-02-11T04:34:13;12.60;;;5.22;;
16314;SDS011;8266;52.150;4.768;2023-02-11T04:36:40;14.27;;;6.15;;
16314;SDS011;8266;52.150;4.768;2023-02-11T04:39:07;11.57;;;5.32;;
16314;SDS011;8266;52.150;4.768;2023-02-11T04:41:36;12.13;;;5.85;;
16314;SDS011;8266;52.150;4.768;2023-02-11T04:44:03;12.27;;;5.25;;
16314;SDS011;8266;52.150;4.768;2023-02-11T04:46:30;10.57;;;5.22;;
16314;SDS011;8266;52.150;4.768;2023-02-11T04:48:57;14.88;;;5.80;;
16314;SDS011;8266;52.150;4.768;2023-02-11T04:51:24;15.88;;;6.32;;
16314;SDS011;8266;52.150;4.768;2023-02-11T04:53:51;12.70;;;5.93;;
16314;SDS011;8266;52.150;4.768;2023-02-11T04:56:18;12.88;;;6.07;;
16314;SDS011;8266;52.150;4.768;2023-02-11T04:58:46;14.23;;;5.90;;
16314;SDS011;8266;52.150;4.768;2023-02-11T05:01:14;14.10;;;6.75;;
16314;SDS011;8266;52.150;4.768;2023-02-11T05:03:41;14.48;;;6.60;;
16314;SDS011;8266;52.150;4.768;2023-02-11T05:06:08;17.55;;;6.40;;
16314;SDS011;8266;52.150;4.768;2023-02-11T05:08:36;12.70;;;6.45;;
16314;SDS011;8266;52.150;4.768;2023-02-11T05:11:03;16.20;;;7.80;;
16314;SDS011;8266;52.150;4.768;2023-02-11T05:13:31;14.32;;;6.97;;
16314;SDS011;8266;52.150;4.768;2023-02-11T05:15:59;11.02;;;6.70;;
16314;SDS011;8266;52.150;4.768;2023-02-11T05:18:26;11.82;;;6.97;;
16314;SDS011;8266;52.150;4.768;2023-02-11T05:20:54;14.05;;;6.25;;
16314;SDS011;8266;52.150;4.768;2023-02-11T05:23:21;12.70;;;6.82;;
16314;SDS011;8266;52.150;4.768;2023-02-11T05:25:47;16.27;;;7.78;;
16314;SDS011;8266;52.150;4.768;2023-02-11T05:28:14;14.32;;;7.05;;
16314;SDS011;8266;52.150;4.768;2023-02-11T05:30:41;15.43;;;6.82;;
16314;SDS011;8266;52.150;4.768;2023-02-11T05:33:10;11.95;;;7.18;;
16314;SDS011;8266;52.150;4.768;2023-02-11T05:35:37;13.02;;;7.70;;
16314;SDS011;8266;52.150;4.768;2023-02-11T05:38:04;15.93;;;8.13;;
16314;SDS011;8266;52.150;4.768;2023-02-11T05:40:30;13.13;;;7.50;;
16314;SDS011;8266;52.150;4.768;2023-02-11T05:42:58;15.23;;;7.63;;
16314;SDS011;8266;52.150;4.768;2023-02-11T05:45:25;14.68;;;8.10;;
16314;SDS011;8266;52.150;4.768;2023-02-11T05:47:52;10.70;;;7.38;;
16314;SDS011;8266;52.150;4.768;2023-02-11T05:50:20;14.48;;;7.68;;
16314;SDS011;8266;52.150;4.768;2023-02-11T05:52:47;16.00;;;7.68;;
16314;SDS011;8266;52.150;4.768;2023-02-11T05:55:14;13.95;;;7.57;;
16314;SDS011;8266;52.150;4.768;2023-02-11T05:57:41;11.98;;;7.75;;
16314;SDS011;8266;52.150;4.768;2023-02-11T06:00:09;15.60;;;7.72;;
16314;SDS011;8266;52.150;4.768;2023-02-11T06:02:36;17.20;;;8.35;;
16314;SDS011;8266;52.150;4.768;2023-02-11T06:05:03;10.85;;;7.97;;
16314;SDS011;8266;52.150;4.768;2023-02-11T06:07:32;13.60;;;8.48;;
16314;SDS011;8266;52.150;4.768;2023-02-11T06:09:59;14.02;;;8.38;;
16314;SDS011;8266;52.150;4.768;2023-02-11T06:12:26;14.73;;;9.32;;
16314;SDS011;8266;52.150;4.768;2023-02-11T06:14:53;15.68;;;8.52;;
16314;SDS011;8266;52.150;4.768;2023-02-11T06:17:20;13.90;;;8.70;;
16314;SDS011;8266;52.150;4.768;2023-02-11T06:19:48;15.35;;;8.77;;
16314;SDS011;8266;52.150;4.768;2023-02-11T06:22:15;13.02;;;7.63;;
16314;SDS011;8266;52.150;4.768;2023-02-11T06:24:44;15.85;;;9.88;;
16314;SDS011;8266;52.150;4.768;2023-02-11T06:27:11;16.63;;;8.90;;
16314;SDS011;8266;52.150;4.768;2023-02-11T06:29:38;15.77;;;9.80;;
16314;SDS011;8266;52.150;4.768;2023-02-11T06:32:04;17.90;;;9.45;;
16314;SDS011;8266;52.150;4.768;2023-02-11T06:34:31;17.02;;;9.32;;
16314;SDS011;8266;52.150;4.768;2023-02-11T06:36:58;15.55;;;8.93;;
16314;SDS011;8266;52.150;4.768;2023-02-11T06:39:25;17.30;;;9.48;;
16314;SDS011;8266;52.150;4.768;2023-02-11T06:41:54;13.20;;;9.73;;
16314;SDS011;8266;52.150;4.768;2023-02-11T06:44:21;19.88;;;10.55;;
16314;SDS011;8266;52.150;4.768;2023-02-11T06:46:48;20.00;;;10.48;;
16314;SDS011;8266;52.150;4.768;2023-02-11T06:49:15;15.55;;;11.02;;
16314;SDS011;8266;52.150;4.768;2023-02-11T06:51:43;14.85;;;10.45;;
16314;SDS011;8266;52.150;4.768;2023-02-11T06:54:10;18.65;;;11.27;;
16314;SDS011;8266;52.150;4.768;2023-02-11T06:56:38;16.08;;;11.63;;
16314;SDS011;8266;52.150;4.768;2023-02-11T06:59:09;20.23;;;11.77;;
16314;SDS011;8266;52.150;4.768;2023-02-11T07:01:40;18.52;;;12.75;;
16314;SDS011;8266;52.150;4.768;2023-02-11T07:04:07;18.55;;;12.10;;
16314;SDS011;8266;52.150;4.768;2023-02-11T07:06:34;17.88;;;12.40;;
16314;SDS011;8266;52.150;4.768;2023-02-11T07:09:02;21.58;;;13.02;;
16314;SDS011;8266;52.150;4.768;2023-02-11T07:11:30;20.67;;;13.00;;
16314;SDS011;8266;52.150;4.768;2023-02-11T07:13:59;17.27;;;12.27;;
16314;SDS011;8266;52.150;4.768;2023-02-11T07:16:29;18.13;;;13.23;;
16314;SDS011;8266;52.150;4.768;2023-02-11T07:18:57;21.33;;;14.05;;
16314;SDS011;8266;52.150;4.768;2023-02-11T07:21:24;20.17;;;13.85;;
16314;SDS011;8266;52.150;4.768;2023-02-11T07:23:51;21.85;;;14.10;;
16314;SDS011;8266;52.150;4.768;2023-02-11T07:26:19;18.40;;;13.65;;
16314;SDS011;8266;52.150;4.768;2023-02-11T07:28:48;18.20;;;14.18;;
16314;SDS011;8266;52.150;4.768;2023-02-11T07:31:17;19.77;;;13.65;;
16314;SDS011;8266;52.150;4.768;2023-02-11T07:33:47;18.05;;;14.75;;
16314;SDS011;8266;52.150;4.768;2023-02-11T07:36:14;18.00;;;14.07;;
16314;SDS011;8266;52.150;4.768;2023-02-11T07:38:42;17.92;;;13.65;;
16314;SDS011;8266;52.150;4.768;2023-02-11T07:41:10;19.33;;;13.88;;
16314;SDS011;8266;52.150;4.768;2023-02-11T07:43:39;19.10;;;13.43;;
16314;SDS011;8266;52.150;4.768;2023-02-11T07:46:07;20.67;;;14.13;;
16314;SDS011;8266;52.150;4.768;2023-02-11T07:48:35;17.60;;;13.27;;
16314;SDS011;8266;52.150;4.768;2023-02-11T07:51:08;18.95;;;13.23;;
16314;SDS011;8266;52.150;4.768;2023-02-11T07:53:36;19.23;;;13.88;;
16314;SDS011;8266;52.150;4.768;2023-02-11T07:56:04;19.02;;;14.57;;
16314;SDS011;8266;52.150;4.768;2023-02-11T07:58:32;19.48;;;13.40;;
16314;SDS011;8266;52.150;4.768;2023-02-11T08:01:00;17.83;;;12.27;;
16314;SDS011;8266;52.150;4.768;2023-02-11T08:03:27;17.83;;;12.82;;
16314;SDS011;8266;52.150;4.768;2023-02-11T08:05:54;19.08;;;13.13;;
16314;SDS011;8266;52.150;4.768;2023-02-11T08:08:24;17.30;;;13.20;;
16314;SDS011;8266;52.150;4.768;2023-02-11T08:10:52;18.13;;;12.43;;
16314;SDS011;8266;52.150;4.768;2023-02-11T08:13:19;15.30;;;12.18;;
16314;SDS011;8266;52.150;4.768;2023-02-11T08:15:46;19.23;;;14.02;;
16314;SDS011;8266;52.150;4.768;2023-02-11T08:18:13;17.63;;;11.75;;
16314;SDS011;8266;52.150;4.768;2023-02-11T08:20:40;15.82;;;12.05;;
16314;SDS011;8266;52.150;4.768;2023-02-11T08:23:07;15.63;;;12.05;;
16314;SDS011;8266;52.150;4.768;2023-02-11T08:25:36;14.73;;;12.35;;
16314;SDS011;8266;52.150;4.768;2023-02-11T08:28:02;16.25;;;11.95;;
16314;SDS011;8266;52.150;4.768;2023-02-11T08:30:29;16.55;;;12.27;;
16314;SDS011;8266;52.150;4.768;2023-02-11T08:32:57;14.93;;;12.20;;
16314;SDS011;8266;52.150;4.768;2023-02-11T08:35:23;15.40;;;11.85;;
16314;SDS011;8266;52.150;4.768;2023-02-11T08:37:50;17.92;;;11.73;;
16314;SDS011;8266;52.150;4.768;2023-02-11T08:40:18;14.13;;;11.40;;
16314;SDS011;8266;52.150;4.768;2023-02-11T08:42:46;14.68;;;11.73;;
16314;SDS011;8266;52.150;4.768;2023-02-11T08:45:13;17.77;;;12.15;;
16314;SDS011;8266;52.150;4.768;2023-02-11T08:47:40;13.45;;;11.63;;
16314;SDS011;8266;52.150;4.768;2023-02-11T08:50:07;14.43;;;11.18;;
16314;SDS011;8266;52.150;4.768;2023-02-11T08:52:35;14.70;;;12.05;;
16314;SDS011;8266;52.150;4.768;2023-02-11T08:55:02;14.85;;;12.02;;
16314;SDS011;8266;52.150;4.768;2023-02-11T08:57:29;17.80;;;12.57;;
16314;SDS011;8266;52.150;4.768;2023-02-11T08:59:59;14.93;;;12.05;;
16314;SDS011;8266;52.150;4.768;2023-02-11T09:02:26;13.07;;;11.10;;
16314;SDS011;8266;52.150;4.768;2023-02-11T09:04:53;13.45;;;11.40;;
16314;SDS011;8266;52.150;4.768;2023-02-11T09:07:21;16.90;;;11.07;;
16314;SDS011;8266;52.150;4.768;2023-02-11T09:09:48;14.55;;;11.57;;
16314;SDS011;8266;52.150;4.768;2023-02-11T09:12:15;13.80;;;11.50;;
16314;SDS011;8266;52.150;4.768;2023-02-11T09:14:42;14.98;;;11.77;;
16314;SDS011;8266;52.150;4.768;2023-02-11T09:17:10;17.08;;;11.68;;
16314;SDS011;8266;52.150;4.768;2023-02-11T09:19:37;13.80;;;11.32;;
16314;SDS011;8266;52.150;4.768;2023-02-11T09:22:04;16.88;;;11.10;;
16314;SDS011;8266;52.150;4.768;2023-02-11T09:24:31;12.95;;;10.77;;
16314;SDS011;8266;52.150;4.768;2023-02-11T09:26:58;13.07;;;10.38;;
16314;SDS011;8266;52.150;4.768;2023-02-11T09:29:25;13.45;;;10.23;;
16314;SDS011;8266;52.150;4.768;2023-02-11T09:31:52;13.65;;;9.57;;
16314;SDS011;8266;52.150;4.768;2023-02-11T09:34:21;11.50;;;9.77;;
16314;SDS011;8266;52.150;4.768;2023-02-11T09:36:48;11.63;;;9.80;;
16314;SDS011;8266;52.150;4.768;2023-02-11T09:39:15;12.15;;;9.60;;
16314;SDS011;8266;52.150;4.768;2023-02-11T09:41:53;15.57;;;9.45;;
16314;SDS011;8266;52.150;4.768;2023-02-11T09:44:40;10.43;;;8.73;;
16314;SDS011;8266;52.150;4.768;2023-02-11T09:47:15;10.95;;;8.95;;
16314;SDS011;8266;52.150;4.768;2023-02-11T09:49:52;11.88;;;8.55;;
16314;SDS011;8266;52.150;4.768;2023-02-11T09:52:26;10.50;;;7.82;;
16314;SDS011;8266;52.150;4.768;2023-02-11T09:54:59;12.80;;;8.20;;
16314;SDS011;8266;52.150;4.768;2023-02-11T09:57:30;11.25;;;7.97;;
16314;SDS011;8266;52.150;4.768;2023-02-11T09:59:58;11.45;;;7.85;;
16314;SDS011;8266;52.150;4.768;2023-02-11T10:02:28;11.45;;;8.00;;
16314;SDS011;8266;52.150;4.768;2023-02-11T10:05:15;9.55;;;7.75;;
16314;SDS011;8266;52.150;4.768;2023-02-11T10:07:50;9.40;;;7.35;;
16314;SDS011;8266;52.150;4.768;2023-02-11T10:10:28;9.73;;;7.28;;
16314;SDS011;8266;52.150;4.768;2023-02-11T10:13:18;9.82;;;7.65;;
16314;SDS011;8266;52.150;4.768;2023-02-11T10:16:01;9.00;;;7.15;;
16314;SDS011;8266;52.150;4.768;2023-02-11T10:18:45;10.82;;;7.57;;
16314;SDS011;8266;52.150;4.768;2023-02-11T10:21:27;10.98;;;7.60;;
16314;SDS011;8266;52.150;4.768;2023-02-11T10:23:59;7.80;;;6.90;;
16314;SDS011;8266;52.150;4.768;2023-02-11T10:26:30;10.20;;;7.53;;
16314;SDS011;8266;52.150;4.768;2023-02-11T10:28:59;9.55;;;7.60;;
16314;SDS011;8266;52.150;4.768;2023-02-11T10:31:33;9.57;;;7.18;;
16314;SDS011;8266;52.150;4.768;2023-02-11T10:34:04;11.27;;;6.88;;
16314;SDS011;8266;52.150;4.768;2023-02-11T10:36:34;10.13;;;7.95;;
16314;SDS011;8266;52.150;4.768;2023-02-11T10:39:08;10.98;;;8.00;;
16314;SDS011;8266;52.150;4.768;2023-02-11T10:41:38;8.95;;;7.68;;
16314;SDS011;8266;52.150;4.768;2023-02-11T10:44:10;8.77;;;7.32;;
16314;SDS011;8266;52.150;4.768;2023-02-11T10:46:47;8.13;;;7.25;;
16314;SDS011;8266;52.150;4.768;2023-02-11T10:52:10;7.22;;;6.53;;
16314;SDS011;8266;52.150;4.768;2023-02-11T10:54:39;9.38;;;6.93;;
16314;SDS011;8266;52.150;4.768;2023-02-11T10:57:11;7.47;;;6.57;;
16314;SDS011;8266;52.150;4.768;2023-02-11T10:59:45;8.20;;;5.97;;
16314;SDS011;8266;52.150;4.768;2023-02-11T11:02:19;8.38;;;6.43;;
16314;SDS011;8266;52.150;4.768;2023-02-11T11:04:48;9.68;;;6.70;;
16314;SDS011;8266;52.150;4.768;2023-02-11T11:07:24;8.30;;;7.03;;
16314;SDS011;8266;52.150;4.768;2023-02-11T11:09:53;7.00;;;6.28;;
16314;SDS011;8266;52.150;4.768;2023-02-11T11:12:24;9.50;;;6.13;;
16314;SDS011;8266;52.150;4.768;2023-02-11T11:14:56;7.32;;;5.45;;
16314;SDS011;8266;52.150;4.768;2023-02-11T11:17:25;6.10;;;5.50;;
16314;SDS011;8266;52.150;4.768;2023-02-11T11:19:53;7.00;;;5.38;;
16314;SDS011;8266;52.150;4.768;2023-02-11T11:22:40;7.60;;;5.82;;
16314;SDS011;8266;52.150;4.768;2023-02-11T11:25:19;8.25;;;5.50;;
16314;SDS011;8266;52.150;4.768;2023-02-11T11:27:51;5.97;;;4.65;;
16314;SDS011;8266;52.150;4.768;2023-02-11T11:30:22;7.85;;;5.22;;
16314;SDS011;8266;52.150;4.768;2023-02-11T11:32:53;5.82;;;5.22;;
16314;SDS011;8266;52.150;4.768;2023-02-11T11:35:23;5.95;;;5.35;;
16314;SDS011;8266;52.150;4.768;2023-02-11T11:37:53;7.55;;;5.57;;
16314;SDS011;8266;52.150;4.768;2023-02-11T11:40:24;7.40;;;6.00;;
16314;SDS011;8266;52.150;4.768;2023-02-11T11:43:02;11.40;;;6.57;;
16314;SDS011;8266;52.150;4.768;2023-02-11T11:45:31;6.20;;;5.57;;
16314;SDS011;8266;52.150;4.768;2023-02-11T11:47:58;6.72;;;5.30;;
16314;SDS011;8266;52.150;4.768;2023-02-11T11:50:29;5.28;;;4.78;;
16314;SDS011;8266;52.150;4.768;2023-02-11T11:53:03;8.07;;;5.25;;
16314;SDS011;8266;52.150;4.768;2023-02-11T11:55:35;7.18;;;6.07;;
16314;SDS011;8266;52.150;4.768;2023-02-11T11:58:09;6.63;;;4.90;;
16314;SDS011;8266;52.150;4.768;2023-02-11T12:00:40;5.80;;;5.20;;
16314;SDS011;8266;52.150;4.768;2023-02-11T12:06:24;5.22;;;4.70;;
16314;SDS011;8266;52.150;4.768;2023-02-11T12:09:03;6.35;;;4.90;;
16314;SDS011;8266;52.150;4.768;2023-02-11T12:11:48;6.13;;;4.95;;
16314;SDS011;8266;52.150;4.768;2023-02-11T12:14:37;7.03;;;5.25;;
16314;SDS011;8266;52.150;4.768;2023-02-11T12:17:13;6.57;;;5.32;;
16314;SDS011;8266;52.150;4.768;2023-02-11T12:20:02;6.15;;;5.00;;
16314;SDS011;8266;52.150;4.768;2023-02-11T12:22:44;7.20;;;5.43;;
16314;SDS011;8266;52.150;4.768;2023-02-11T12:25:21;8.65;;;4.88;;
16314;SDS011;8266;52.150;4.768;2023-02-11T12:27:56;6.45;;;5.15;;
16314;SDS011;8266;52.150;4.768;2023-02-11T12:30:41;5.30;;;4.63;;
16314;SDS011;8266;52.150;4.768;2023-02-11T12:33:16;5.72;;;4.80;;
16314;SDS011;8266;52.150;4.768;2023-02-11T12:35:57;7.10;;;4.88;;
16314;SDS011;8266;52.150;4.768;2023-02-11T12:38:32;5.05;;;4.55;;
16314;SDS011;8266;52.150;4.768;2023-02-11T12:41:18;5.05;;;4.30;;
16314;SDS011;8266;52.150;4.768;2023-02-11T12:44:13;4.57;;;4.18;;
16314;SDS011;8266;52.150;4.768;2023-02-11T12:46:52;7.10;;;4.63;;
16314;SDS011;8266;52.150;4.768;2023-02-11T12:49:30;6.50;;;4.30;;
16314;SDS011;8266;52.150;4.768;2023-02-11T12:52:22;4.40;;;3.33;;
16314;SDS011;8266;52.150;4.768;2023-02-11T12:55:01;4.70;;;3.80;;
16314;SDS011;8266;52.150;4.768;2023-02-11T12:57:46;5.00;;;3.58;;
16314;SDS011;8266;52.150;4.768;2023-02-11T13:00:15;5.32;;;4.15;;
16314;SDS011;8266;52.150;4.768;2023-02-11T13:02:46;6.32;;;4.38;;
16314;SDS011;8266;52.150;4.768;2023-02-11T13:05:22;6.03;;;4.45;;
16314;SDS011;8266;52.150;4.768;2023-02-11T13:07:54;5.72;;;4.53;;
16314;SDS011;8266;52.150;4.768;2023-02-11T13:10:30;5.03;;;4.18;;
16314;SDS011;8266;52.150;4.768;2023-02-11T13:13:01;5.40;;;3.70;;
16314;SDS011;8266;52.150;4.768;2023-02-11T13:15:45;4.97;;;4.05;;
16314;SDS011;8266;52.150;4.768;2023-02-11T13:18:18;4.57;;;4.10;;
16314;SDS011;8266;52.150;4.768;2023-02-11T13:21:09;6.45;;;4.68;;
16314;SDS011;8266;52.150;4.768;2023-02-11T13:23:49;5.15;;;3.70;;
16314;SDS011;8266;52.150;4.768;2023-02-11T13:26:26;5.95;;;4.28;;
16314;SDS011;8266;52.150;4.768;2023-02-11T13:28:59;7.47;;;4.22;;
16314;SDS011;8266;52.150;4.768;2023-02-11T13:31:36;5.60;;;4.20;;
16314;SDS011;8266;52.150;4.768;2023-02-11T13:34:03;5.80;;;4.57;;
16314;SDS011;8266;52.150;4.768;2023-02-11T13:36:52;8.13;;;3.92;;
16314;SDS011;8266;52.150;4.768;2023-02-11T13:39:20;6.47;;;3.75;;
16314;SDS011;8266;52.150;4.768;2023-02-11T13:41:48;6.95;;;4.22;;
16314;SDS011;8266;52.150;4.768;2023-02-11T13:44:26;7.60;;;4.47;;
16314;SDS011;8266;52.150;4.768;2023-02-11T13:46:58;6.30;;;3.70;;
16314;SDS011;8266;52.150;4.768;2023-02-11T13:49:29;5.25;;;4.05;;
16314;SDS011;8266;52.150;4.768;2023-02-11T13:52:00;4.78;;;3.75;;
16314;SDS011;8266;52.150;4.768;2023-02-11T13:54:30;6.88;;;4.20;;
16314;SDS011;8266;52.150;4.768;2023-02-11T13:57:20;6.05;;;4.00;;
16314;SDS011;8266;52.150;4.768;2023-02-11T14:00:06;4.68;;;3.83;;
16314;SDS011;8266;52.150;4.768;2023-02-11T14:06:13;6.57;;;3.75;;
16314;SDS011;8266;52.150;4.768;2023-02-11T14:09:04;4.57;;;3.58;;
16314;SDS011;8266;52.150;4.768;2023-02-11T14:11:47;5.78;;;3.97;;
16314;SDS011;8266;52.150;4.768;2023-02-11T14:14:17;3.90;;;3.50;;
16314;SDS011;8266;52.150;4.768;2023-02-11T14:20:00;5.38;;;3.95;;
16314;SDS011;8266;52.150;4.768;2023-02-11T14:22:30;8.00;;;4.03;;
16314;SDS011;8266;52.150;4.768;2023-02-11T14:25:14;4.55;;;4.05;;
16314;SDS011;8266;52.150;4.768;2023-02-11T14:27:46;4.00;;;3.35;;
16314;SDS011;8266;52.150;4.768;2023-02-11T14:30:21;5.20;;;4.18;;
16314;SDS011;8266;52.150;4.768;2023-02-11T14:36:17;5.15;;;4.18;;
16314;SDS011;8266;52.150;4.768;2023-02-11T14:38:58;4.47;;;4.07;;
16314;SDS011;8266;52.150;4.768;2023-02-11T14:41:33;6.28;;;3.95;;
16314;SDS011;8266;52.150;4.768;2023-02-11T14:44:07;6.10;;;4.47;;
16314;SDS011;8266;52.150;4.768;2023-02-11T14:46:42;5.20;;;4.25;;
16314;SDS011;8266;52.150;4.768;2023-02-11T14:49:12;5.10;;;3.92;;
16314;SDS011;8266;52.150;4.768;2023-02-11T14:51:49;4.15;;;3.70;;
16314;SDS011;8266;52.150;4.768;2023-02-11T14:54:18;7.03;;;4.50;;
16314;SDS011;8266;52.150;4.768;2023-02-11T14:57:04;7.18;;;4.57;;
16314;SDS011;8266;52.150;4.768;2023-02-11T14:59:32;6.53;;;4.43;;
16314;SDS011;8266;52.150;4.768;2023-02-11T15:01:59;6.10;;;4.03;;
16314;SDS011;8266;52.150;4.768;2023-02-11T15:04:29;5.80;;;3.33;;
16314;SDS011;8266;52.150;4.768;2023-02-11T15:06:57;7.53;;;4.20;;
16314;SDS011;8266;52.150;4.768;2023-02-11T15:09:32;5.35;;;3.78;;
16314;SDS011;8266;52.150;4.768;2023-02-11T15:12:03;5.47;;;3.88;;
16314;SDS011;8266;52.150;4.768;2023-02-11T15:14:39;5.75;;;3.70;;
16314;SDS011;8266;52.150;4.768;2023-02-11T15:17:12;5.65;;;3.78;;
16314;SDS011;8266;52.150;4.768;2023-02-11T15:19:45;7.32;;;3.92;;
16314;SDS011;8266;52.150;4.768;2023-02-11T15:22:17;4.95;;;3.70;;
16314;SDS011;8266;52.150;4.768;2023-02-11T15:24:56;4.50;;;3.65;;
16314;SDS011;8266;52.150;4.768;2023-02-11T15:27:25;7.00;;;3.50;;
16314;SDS011;8266;52.150;4.768;2023-02-11T15:29:52;6.65;;;3.75;;
16314;SDS011;8266;52.150;4.768;2023-02-11T15:32:20;5.53;;;3.45;;